sensor_id;sensor_type;location;lat;lon;timestamp;P1;durP1;ratioP1;P2;durP2;ratioP2
75926;SDS011;64605;48.296;16.416;2023-05-14T00:00:34;25.80;;;22.48;;
75926;SDS011;64605;48.296;16.416;2023-05-14T00:03:00;22.48;;;20.08;;
75926;SDS011;64605;48.296;16.416;2023-05-14T00:05:25;22.55;;;19.85;;
75926;SDS011;64605;48.296;16.416;2023-05-14T00:07:51;24.42;;;20.80;;
75926;SDS011;64605;48.296;16.416;2023-05-14T00:10:16;22.35;;;19.83;;
75926;SDS011;64605;48.296;16.416;2023-05-14T00:12:44;22.23;;;19.98;;
75926;SDS011;64605;48.296;16.416;2023-05-14T00:15:10;24.33;;;21.08;;
75926;SDS011;64605;48.296;16.416;2023-05-14T00:17:36;24.40;;;20.27;;
75926;SDS011;64605;48.296;16.416;2023-05-14T00:20:02;23.60;;;20.73;;
75926;SDS011;64605;48.296;16.416;2023-05-14T00:22:31;25.42;;;20.95;;
75926;SDS011;64605;48.296;16.416;2023-05-14T00:24:57;24.27;;;21.00;;
75926;SDS011;64605;48.296;16.416;2023-05-14T00:27:23;23.88;;;20.63;;
75926;SDS011;64605;48.296;16.416;2023-05-14T00:29:48;23.15;;;20.63;;
75926;SDS011;64605;48.296;16.416;2023-05-14T00:32:14;24.80;;;22.20;;
75926;SDS011;64605;48.296;16.416;2023-05-14T00:34:40;27.33;;;22.15;;
75926;SDS011;64605;48.296;16.416;2023-05-14T00:37:05;26.77;;;22.48;;
75926;SDS011;64605;48.296;16.416;2023-05-14T00:39:31;26.35;;;23.50;;
75926;SDS011;64605;48.296;16.416;2023-05-14T00:41:57;25.77;;;22.15;;
75926;SDS011;64605;48.296;16.416;2023-05-14T00:44:23;25.90;;;22.20;;
75926;SDS011;64605;48.296;16.416;2023-05-14T00:46:49;23.60;;;21.10;;
75926;SDS011;64605;48.296;16.416;2023-05-14T00:49:14;26.83;;;21.73;;
75926;SDS011;64605;48.296;16.416;2023-05-14T00:51:41;28.00;;;22.63;;
75926;SDS011;64605;48.296;16.416;2023-05-14T00:54:10;23.67;;;21.10;;
75926;SDS011;64605;48.296;16.416;2023-05-14T00:56:40;24.90;;;21.23;;
75926;SDS011;64605;48.296;16.416;2023-05-14T00:59:08;28.30;;;23.88;;
75926;SDS011;64605;48.296;16.416;2023-05-14T01:01:34;24.80;;;20.95;;
75926;SDS011;64605;48.296;16.416;2023-05-14T01:04:00;27.70;;;23.15;;
75926;SDS011;64605;48.296;16.416;2023-05-14T01:09:28;27.90;;;24.60;;
75926;SDS011;64605;48.296;16.416;2023-05-14T01:12:07;31.13;;;25.00;;
75926;SDS011;64605;48.296;16.416;2023-05-14T01:14:48;28.20;;;24.15;;
75926;SDS011;64605;48.296;16.416;2023-05-14T01:17:16;30.25;;;25.50;;
75926;SDS011;64605;48.296;16.416;2023-05-14T01:19:45;25.63;;;22.13;;
75926;SDS011;64605;48.296;16.416;2023-05-14T01:22:11;27.48;;;23.95;;
75926;SDS011;64605;48.296;16.416;2023-05-14T01:24:37;27.13;;;24.23;;
75926;SDS011;64605;48.296;16.416;2023-05-14T01:27:09;27.02;;;23.58;;
75926;SDS011;64605;48.296;16.416;2023-05-14T01:29:42;31.30;;;25.23;;
75926;SDS011;64605;48.296;16.416;2023-05-14T01:32:16;29.67;;;24.75;;
75926;SDS011;64605;48.296;16.416;2023-05-14T01:34:44;27.85;;;24.88;;
75926;SDS011;64605;48.296;16.416;2023-05-14T01:37:12;27.67;;;23.88;;
75926;SDS011;64605;48.296;16.416;2023-05-14T01:39:39;25.75;;;22.40;;
75926;SDS011;64605;48.296;16.416;2023-05-14T01:42:06;29.50;;;24.45;;
75926;SDS011;64605;48.296;16.416;2023-05-14T01:44:32;27.10;;;23.75;;
75926;SDS011;64605;48.296;16.416;2023-05-14T01:46:59;27.60;;;23.58;;
75926;SDS011;64605;48.296;16.416;2023-05-14T01:49:24;27.20;;;22.92;;
75926;SDS011;64605;48.296;16.416;2023-05-14T01:51:50;29.02;;;24.45;;
75926;SDS011;64605;48.296;16.416;2023-05-14T01:54:15;28.00;;;22.67;;
75926;SDS011;64605;48.296;16.416;2023-05-14T01:56:41;29.42;;;24.90;;
75926;SDS011;64605;48.296;16.416;2023-05-14T01:59:07;33.15;;;26.73;;
75926;SDS011;64605;48.296;16.416;2023-05-14T02:01:32;28.08;;;24.73;;
75926;SDS011;64605;48.296;16.416;2023-05-14T02:03:58;28.60;;;25.58;;
75926;SDS011;64605;48.296;16.416;2023-05-14T02:06:25;30.52;;;26.45;;
75926;SDS011;64605;48.296;16.416;2023-05-14T02:08:51;25.90;;;23.20;;
75926;SDS011;64605;48.296;16.416;2023-05-14T02:11:16;34.50;;;28.25;;
75926;SDS011;64605;48.296;16.416;2023-05-14T02:13:42;27.10;;;23.23;;
75926;SDS011;64605;48.296;16.416;2023-05-14T02:16:07;28.73;;;24.30;;
75926;SDS011;64605;48.296;16.416;2023-05-14T02:18:33;35.53;;;26.42;;
75926;SDS011;64605;48.296;16.416;2023-05-14T02:20:59;32.88;;;26.58;;
75926;SDS011;64605;48.296;16.416;2023-05-14T02:23:25;27.65;;;24.70;;
75926;SDS011;64605;48.296;16.416;2023-05-14T02:25:50;26.38;;;23.60;;
75926;SDS011;64605;48.296;16.416;2023-05-14T02:28:16;30.05;;;25.15;;
75926;SDS011;64605;48.296;16.416;2023-05-14T02:30:41;29.80;;;25.90;;
75926;SDS011;64605;48.296;16.416;2023-05-14T02:33:07;28.73;;;25.40;;
75926;SDS011;64605;48.296;16.416;2023-05-14T02:35:33;25.73;;;23.02;;
75926;SDS011;64605;48.296;16.416;2023-05-14T02:37:58;28.98;;;25.90;;
75926;SDS011;64605;48.296;16.416;2023-05-14T02:40:24;30.10;;;26.92;;
75926;SDS011;64605;48.296;16.416;2023-05-14T02:42:50;29.63;;;25.92;;
75926;SDS011;64605;48.296;16.416;2023-05-14T02:45:15;27.58;;;24.67;;
75926;SDS011;64605;48.296;16.416;2023-05-14T02:47:41;29.45;;;26.27;;
75926;SDS011;64605;48.296;16.416;2023-05-14T02:50:07;28.13;;;25.35;;
75926;SDS011;64605;48.296;16.416;2023-05-14T02:52:33;25.33;;;22.83;;
75926;SDS011;64605;48.296;16.416;2023-05-14T02:54:59;25.45;;;22.85;;
75926;SDS011;64605;48.296;16.416;2023-05-14T02:57:25;24.42;;;21.92;;
75926;SDS011;64605;48.296;16.416;2023-05-14T02:59:51;26.75;;;23.85;;
75926;SDS011;64605;48.296;16.416;2023-05-14T03:02:16;25.60;;;22.90;;
75926;SDS011;64605;48.296;16.416;2023-05-14T03:04:42;24.15;;;21.85;;
75926;SDS011;64605;48.296;16.416;2023-05-14T03:07:08;25.35;;;22.85;;
75926;SDS011;64605;48.296;16.416;2023-05-14T03:09:34;24.17;;;21.67;;
75926;SDS011;64605;48.296;16.416;2023-05-14T03:11:59;25.45;;;22.83;;
75926;SDS011;64605;48.296;16.416;2023-05-14T03:14:25;28.70;;;25.08;;
75926;SDS011;64605;48.296;16.416;2023-05-14T03:16:50;28.88;;;25.88;;
75926;SDS011;64605;48.296;16.416;2023-05-14T03:19:16;25.83;;;23.13;;
75926;SDS011;64605;48.296;16.416;2023-05-14T03:21:42;26.45;;;23.83;;
75926;SDS011;64605;48.296;16.416;2023-05-14T03:24:07;27.17;;;24.33;;
75926;SDS011;64605;48.296;16.416;2023-05-14T03:26:33;25.40;;;22.75;;
75926;SDS011;64605;48.296;16.416;2023-05-14T03:28:59;26.20;;;22.30;;
75926;SDS011;64605;48.296;16.416;2023-05-14T03:31:24;26.35;;;23.65;;
75926;SDS011;64605;48.296;16.416;2023-05-14T03:33:50;24.55;;;21.73;;
75926;SDS011;64605;48.296;16.416;2023-05-14T03:36:16;26.00;;;23.30;;
75926;SDS011;64605;48.296;16.416;2023-05-14T03:38:42;23.98;;;21.40;;
75926;SDS011;64605;48.296;16.416;2023-05-14T03:41:07;25.00;;;21.15;;
75926;SDS011;64605;48.296;16.416;2023-05-14T03:43:33;21.67;;;19.45;;
75926;SDS011;64605;48.296;16.416;2023-05-14T03:45:59;21.55;;;19.23;;
75926;SDS011;64605;48.296;16.416;2023-05-14T03:48:24;22.80;;;19.33;;
75926;SDS011;64605;48.296;16.416;2023-05-14T03:50:50;18.70;;;16.63;;
75926;SDS011;64605;48.296;16.416;2023-05-14T03:53:16;18.13;;;15.95;;
75926;SDS011;64605;48.296;16.416;2023-05-14T03:55:41;17.20;;;15.27;;
75926;SDS011;64605;48.296;16.416;2023-05-14T03:58:07;16.10;;;14.50;;
75926;SDS011;64605;48.296;16.416;2023-05-14T04:00:39;15.35;;;13.95;;
75926;SDS011;64605;48.296;16.416;2023-05-14T04:03:05;14.82;;;13.35;;
75926;SDS011;64605;48.296;16.416;2023-05-14T04:05:31;15.10;;;13.45;;
75926;SDS011;64605;48.296;16.416;2023-05-14T04:07:57;14.60;;;13.18;;
75926;SDS011;64605;48.296;16.416;2023-05-14T04:10:22;16.67;;;14.38;;
75926;SDS011;64605;48.296;16.416;2023-05-14T04:12:48;18.50;;;14.65;;
75926;SDS011;64605;48.296;16.416;2023-05-14T04:15:14;14.35;;;12.93;;
75926;SDS011;64605;48.296;16.416;2023-05-14T04:17:39;14.57;;;12.45;;
75926;SDS011;64605;48.296;16.416;2023-05-14T04:20:05;13.43;;;11.85;;
75926;SDS011;64605;48.296;16.416;2023-05-14T04:22:32;14.65;;;12.40;;
75926;SDS011;64605;48.296;16.416;2023-05-14T04:24:57;18.48;;;11.02;;
75926;SDS011;64605;48.296;16.416;2023-05-14T04:27:23;12.73;;;11.45;;
75926;SDS011;64605;48.296;16.416;2023-05-14T04:29:49;16.30;;;11.70;;
75926;SDS011;64605;48.296;16.416;2023-05-14T04:32:15;12.88;;;11.60;;
75926;SDS011;64605;48.296;16.416;2023-05-14T04:34:41;12.07;;;10.70;;
75926;SDS011;64605;48.296;16.416;2023-05-14T04:37:07;13.05;;;11.68;;
75926;SDS011;64605;48.296;16.416;2023-05-14T04:39:34;13.00;;;11.68;;
75926;SDS011;64605;48.296;16.416;2023-05-14T04:42:00;10.65;;;9.60;;
75926;SDS011;64605;48.296;16.416;2023-05-14T04:44:26;10.13;;;9.05;;
75926;SDS011;64605;48.296;16.416;2023-05-14T04:46:51;11.52;;;9.55;;
75926;SDS011;64605;48.296;16.416;2023-05-14T04:49:17;11.13;;;10.02;;
75926;SDS011;64605;48.296;16.416;2023-05-14T04:51:42;10.40;;;9.40;;
75926;SDS011;64605;48.296;16.416;2023-05-14T04:54:08;13.00;;;9.95;;
75926;SDS011;64605;48.296;16.416;2023-05-14T04:56:34;9.90;;;8.88;;
75926;SDS011;64605;48.296;16.416;2023-05-14T04:58:59;11.38;;;10.10;;
75926;SDS011;64605;48.296;16.416;2023-05-14T05:01:25;9.93;;;8.88;;
75926;SDS011;64605;48.296;16.416;2023-05-14T05:03:50;10.60;;;9.50;;
75926;SDS011;64605;48.296;16.416;2023-05-14T05:06:16;10.40;;;9.30;;
75926;SDS011;64605;48.296;16.416;2023-05-14T05:08:42;10.30;;;8.82;;
75926;SDS011;64605;48.296;16.416;2023-05-14T05:11:07;9.65;;;8.63;;
75926;SDS011;64605;48.296;16.416;2023-05-14T05:13:33;11.30;;;9.00;;
75926;SDS011;64605;48.296;16.416;2023-05-14T05:15:59;10.07;;;8.25;;
75926;SDS011;64605;48.296;16.416;2023-05-14T05:18:24;10.52;;;9.13;;
75926;SDS011;64605;48.296;16.416;2023-05-14T05:20:50;11.02;;;8.55;;
75926;SDS011;64605;48.296;16.416;2023-05-14T05:23:16;9.63;;;8.70;;
75926;SDS011;64605;48.296;16.416;2023-05-14T05:25:41;11.23;;;8.88;;
75926;SDS011;64605;48.296;16.416;2023-05-14T05:28:07;11.45;;;9.07;;
75926;SDS011;64605;48.296;16.416;2023-05-14T05:30:32;9.07;;;8.18;;
75926;SDS011;64605;48.296;16.416;2023-05-14T05:32:58;10.75;;;9.65;;
75926;SDS011;64605;48.296;16.416;2023-05-14T05:35:24;9.82;;;8.82;;
75926;SDS011;64605;48.296;16.416;2023-05-14T05:37:49;9.43;;;8.32;;
75926;SDS011;64605;48.296;16.416;2023-05-14T05:40:15;10.68;;;8.77;;
75926;SDS011;64605;48.296;16.416;2023-05-14T05:42:41;9.88;;;8.88;;
75926;SDS011;64605;48.296;16.416;2023-05-14T05:45:07;10.45;;;9.40;;
75926;SDS011;64605;48.296;16.416;2023-05-14T05:47:32;10.95;;;9.88;;
75926;SDS011;64605;48.296;16.416;2023-05-14T05:49:58;11.70;;;10.55;;
75926;SDS011;64605;48.296;16.416;2023-05-14T05:52:25;12.20;;;9.65;;
75926;SDS011;64605;48.296;16.416;2023-05-14T05:54:51;10.25;;;9.18;;
75926;SDS011;64605;48.296;16.416;2023-05-14T05:57:16;11.98;;;9.18;;
75926;SDS011;64605;48.296;16.416;2023-05-14T05:59:42;10.15;;;9.20;;
75926;SDS011;64605;48.296;16.416;2023-05-14T06:02:08;11.27;;;9.93;;
75926;SDS011;64605;48.296;16.416;2023-05-14T06:04:33;11.20;;;10.10;;
75926;SDS011;64605;48.296;16.416;2023-05-14T06:06:59;10.07;;;9.02;;
75926;SDS011;64605;48.296;16.416;2023-05-14T06:09:25;9.80;;;8.88;;
75926;SDS011;64605;48.296;16.416;2023-05-14T06:11:51;13.02;;;9.45;;
75926;SDS011;64605;48.296;16.416;2023-05-14T06:14:16;11.20;;;8.95;;
75926;SDS011;64605;48.296;16.416;2023-05-14T06:16:42;10.48;;;9.30;;
75926;SDS011;64605;48.296;16.416;2023-05-14T06:19:08;10.45;;;8.98;;
75926;SDS011;64605;48.296;16.416;2023-05-14T06:21:34;10.30;;;9.18;;
75926;SDS011;64605;48.296;16.416;2023-05-14T06:23:59;9.02;;;8.23;;
75926;SDS011;64605;48.296;16.416;2023-05-14T06:26:25;10.65;;;8.63;;
75926;SDS011;64605;48.296;16.416;2023-05-14T06:28:51;14.00;;;9.05;;
75926;SDS011;64605;48.296;16.416;2023-05-14T06:31:17;10.45;;;9.35;;
75926;SDS011;64605;48.296;16.416;2023-05-14T06:33:43;9.30;;;8.13;;
75926;SDS011;64605;48.296;16.416;2023-05-14T06:36:09;9.40;;;8.50;;
75926;SDS011;64605;48.296;16.416;2023-05-14T06:38:35;9.93;;;8.70;;
75926;SDS011;64605;48.296;16.416;2023-05-14T06:41:01;8.70;;;7.80;;
75926;SDS011;64605;48.296;16.416;2023-05-14T06:43:27;10.18;;;9.18;;
75926;SDS011;64605;48.296;16.416;2023-05-14T06:45:53;10.60;;;8.88;;
75926;SDS011;64605;48.296;16.416;2023-05-14T06:48:18;10.20;;;8.20;;
75926;SDS011;64605;48.296;16.416;2023-05-14T06:50:45;9.55;;;8.70;;
75926;SDS011;64605;48.296;16.416;2023-05-14T06:53:11;8.85;;;8.00;;
75926;SDS011;64605;48.296;16.416;2023-05-14T06:55:37;9.07;;;8.10;;
75926;SDS011;64605;48.296;16.416;2023-05-14T06:58:04;9.10;;;8.07;;
75926;SDS011;64605;48.296;16.416;2023-05-14T07:00:30;9.25;;;8.45;;
75926;SDS011;64605;48.296;16.416;2023-05-14T07:02:56;11.35;;;9.60;;
75926;SDS011;64605;48.296;16.416;2023-05-14T07:05:22;11.90;;;9.75;;
75926;SDS011;64605;48.296;16.416;2023-05-14T07:07:48;11.38;;;10.18;;
75926;SDS011;64605;48.296;16.416;2023-05-14T07:10:14;18.58;;;10.07;;
75926;SDS011;64605;48.296;16.416;2023-05-14T07:12:39;12.02;;;10.38;;
75926;SDS011;64605;48.296;16.416;2023-05-14T07:15:05;12.02;;;10.52;;
75926;SDS011;64605;48.296;16.416;2023-05-14T07:17:31;14.07;;;12.43;;
75926;SDS011;64605;48.296;16.416;2023-05-14T07:19:57;11.70;;;10.55;;
75926;SDS011;64605;48.296;16.416;2023-05-14T07:22:23;13.55;;;12.13;;
75926;SDS011;64605;48.296;16.416;2023-05-14T07:24:48;11.07;;;9.98;;
75926;SDS011;64605;48.296;16.416;2023-05-14T07:27:14;12.05;;;10.85;;
75926;SDS011;64605;48.296;16.416;2023-05-14T07:29:41;13.00;;;11.65;;
75926;SDS011;64605;48.296;16.416;2023-05-14T07:32:07;12.82;;;11.48;;
75926;SDS011;64605;48.296;16.416;2023-05-14T07:34:32;14.30;;;10.23;;
75926;SDS011;64605;48.296;16.416;2023-05-14T07:36:58;12.38;;;10.90;;
75926;SDS011;64605;48.296;16.416;2023-05-14T07:39:24;12.82;;;11.63;;
75926;SDS011;64605;48.296;16.416;2023-05-14T07:41:50;15.07;;;13.63;;
75926;SDS011;64605;48.296;16.416;2023-05-14T07:44:15;13.38;;;12.13;;
75926;SDS011;64605;48.296;16.416;2023-05-14T07:46:41;13.48;;;12.18;;
75926;SDS011;64605;48.296;16.416;2023-05-14T07:49:07;14.23;;;12.75;;
75926;SDS011;64605;48.296;16.416;2023-05-14T07:51:32;11.93;;;10.82;;
75926;SDS011;64605;48.296;16.416;2023-05-14T07:53:58;12.52;;;11.23;;
75926;SDS011;64605;48.296;16.416;2023-05-14T07:56:24;13.38;;;11.23;;
75926;SDS011;64605;48.296;16.416;2023-05-14T07:58:50;12.38;;;11.13;;
75926;SDS011;64605;48.296;16.416;2023-05-14T08:01:15;12.35;;;10.65;;
75926;SDS011;64605;48.296;16.416;2023-05-14T08:03:41;10.48;;;9.48;;
75926;SDS011;64605;48.296;16.416;2023-05-14T08:06:07;10.02;;;8.70;;
75926;SDS011;64605;48.296;16.416;2023-05-14T08:08:33;15.27;;;10.85;;
75926;SDS011;64605;48.296;16.416;2023-05-14T08:10:58;21.02;;;11.90;;
75926;SDS011;64605;48.296;16.416;2023-05-14T08:13:24;15.20;;;12.88;;
75926;SDS011;64605;48.296;16.416;2023-05-14T08:15:50;14.25;;;12.85;;
75926;SDS011;64605;48.296;16.416;2023-05-14T08:18:16;14.05;;;11.20;;
75926;SDS011;64605;48.296;16.416;2023-05-14T08:20:41;15.02;;;12.65;;
75926;SDS011;64605;48.296;16.416;2023-05-14T08:23:07;11.43;;;10.23;;
75926;SDS011;64605;48.296;16.416;2023-05-14T08:25:33;11.98;;;10.05;;
75926;SDS011;64605;48.296;16.416;2023-05-14T08:27:59;12.00;;;10.45;;
75926;SDS011;64605;48.296;16.416;2023-05-14T08:30:25;12.18;;;10.90;;
75926;SDS011;64605;48.296;16.416;2023-05-14T08:32:51;11.93;;;10.70;;
75926;SDS011;64605;48.296;16.416;2023-05-14T08:35:17;12.25;;;10.77;;
75926;SDS011;64605;48.296;16.416;2023-05-14T08:37:43;13.23;;;11.30;;
75926;SDS011;64605;48.296;16.416;2023-05-14T08:40:09;15.30;;;10.98;;
75926;SDS011;64605;48.296;16.416;2023-05-14T08:42:34;11.13;;;9.95;;
75926;SDS011;64605;48.296;16.416;2023-05-14T08:45:04;12.27;;;10.77;;
75926;SDS011;64605;48.296;16.416;2023-05-14T08:47:40;10.93;;;9.60;;
75926;SDS011;64605;48.296;16.416;2023-05-14T08:50:08;13.95;;;10.43;;
75926;SDS011;64605;48.296;16.416;2023-05-14T08:52:34;16.85;;;13.35;;
75926;SDS011;64605;48.296;16.416;2023-05-14T08:55:01;15.55;;;11.50;;
75926;SDS011;64605;48.296;16.416;2023-05-14T08:57:29;16.45;;;13.27;;
75926;SDS011;64605;48.296;16.416;2023-05-14T08:59:56;21.13;;;15.48;;
75926;SDS011;64605;48.296;16.416;2023-05-14T09:02:23;17.33;;;12.82;;
75926;SDS011;64605;48.296;16.416;2023-05-14T09:04:57;16.27;;;14.57;;
75926;SDS011;64605;48.296;16.416;2023-05-14T09:07:24;26.17;;;16.52;;
75926;SDS011;64605;48.296;16.416;2023-05-14T09:09:51;21.80;;;17.30;;
75926;SDS011;64605;48.296;16.416;2023-05-14T09:12:17;20.10;;;16.15;;
75926;SDS011;64605;48.296;16.416;2023-05-14T09:14:43;18.33;;;12.57;;
75926;SDS011;64605;48.296;16.416;2023-05-14T09:17:09;17.85;;;13.15;;
75926;SDS011;64605;48.296;16.416;2023-05-14T09:19:39;28.33;;;18.45;;
75926;SDS011;64605;48.296;16.416;2023-05-14T09:22:12;20.00;;;15.80;;
75926;SDS011;64605;48.296;16.416;2023-05-14T09:24:39;30.67;;;17.88;;
75926;SDS011;64605;48.296;16.416;2023-05-14T09:27:05;30.67;;;20.67;;
75926;SDS011;64605;48.296;16.416;2023-05-14T09:29:32;24.80;;;19.60;;
75926;SDS011;64605;48.296;16.416;2023-05-14T09:31:58;25.85;;;19.75;;
75926;SDS011;64605;48.296;16.416;2023-05-14T09:34:32;28.60;;;21.80;;
75926;SDS011;64605;48.296;16.416;2023-05-14T09:36:59;72.45;;;26.98;;
75926;SDS011;64605;48.296;16.416;2023-05-14T09:39:27;57.60;;;29.25;;
75926;SDS011;64605;48.296;16.416;2023-05-14T09:41:53;47.53;;;26.60;;
75926;SDS011;64605;48.296;16.416;2023-05-14T09:44:20;48.42;;;29.90;;
75926;SDS011;64605;48.296;16.416;2023-05-14T09:46:46;40.03;;;27.45;;
75926;SDS011;64605;48.296;16.416;2023-05-14T09:49:12;49.65;;;29.05;;
75926;SDS011;64605;48.296;16.416;2023-05-14T09:51:38;34.20;;;25.15;;
75926;SDS011;64605;48.296;16.416;2023-05-14T09:54:04;36.30;;;27.20;;
75926;SDS011;64605;48.296;16.416;2023-05-14T09:56:34;42.60;;;28.10;;
75926;SDS011;64605;48.296;16.416;2023-05-14T09:59:00;58.05;;;34.17;;
75926;SDS011;64605;48.296;16.416;2023-05-14T10:01:30;38.22;;;28.52;;
75926;SDS011;64605;48.296;16.416;2023-05-14T10:03:59;32.83;;;23.20;;
75926;SDS011;64605;48.296;16.416;2023-05-14T10:06:32;37.58;;;27.50;;
75926;SDS011;64605;48.296;16.416;2023-05-14T10:09:02;43.03;;;29.20;;
75926;SDS011;64605;48.296;16.416;2023-05-14T10:11:36;36.30;;;24.35;;
75926;SDS011;64605;48.296;16.416;2023-05-14T10:16:32;42.85;;;28.23;;
75926;SDS011;64605;48.296;16.416;2023-05-14T10:19:12;36.38;;;26.23;;
75926;SDS011;64605;48.296;16.416;2023-05-14T10:21:40;27.23;;;20.77;;
75926;SDS011;64605;48.296;16.416;2023-05-14T10:24:09;28.23;;;21.80;;
75926;SDS011;64605;48.296;16.416;2023-05-14T10:26:37;31.42;;;23.98;;
75926;SDS011;64605;48.296;16.416;2023-05-14T10:29:11;35.95;;;25.83;;
75926;SDS011;64605;48.296;16.416;2023-05-14T10:31:50;28.75;;;22.35;;
75926;SDS011;64605;48.296;16.416;2023-05-14T10:34:33;28.95;;;22.73;;
75926;SDS011;64605;48.296;16.416;2023-05-14T10:37:10;34.40;;;24.67;;
75926;SDS011;64605;48.296;16.416;2023-05-14T10:39:43;41.78;;;28.65;;
75926;SDS011;64605;48.296;16.416;2023-05-14T10:42:11;34.45;;;26.13;;
75926;SDS011;64605;48.296;16.416;2023-05-14T10:45:05;24.05;;;19.70;;
75926;SDS011;64605;48.296;16.416;2023-05-14T10:47:35;27.02;;;21.88;;
75926;SDS011;64605;48.296;16.416;2023-05-14T10:50:08;31.52;;;23.83;;
75926;SDS011;64605;48.296;16.416;2023-05-14T10:52:35;27.40;;;19.17;;
75926;SDS011;64605;48.296;16.416;2023-05-14T10:55:02;22.05;;;18.33;;
75926;SDS011;64605;48.296;16.416;2023-05-14T10:57:37;21.40;;;18.58;;
75926;SDS011;64605;48.296;16.416;2023-05-14T11:00:04;25.30;;;20.60;;
75926;SDS011;64605;48.296;16.416;2023-05-14T11:02:38;27.40;;;20.98;;
75926;SDS011;64605;48.296;16.416;2023-05-14T11:07:35;31.30;;;24.77;;
75926;SDS011;64605;48.296;16.416;2023-05-14T11:10:06;23.38;;;19.95;;
75926;SDS011;64605;48.296;16.416;2023-05-14T11:12:34;25.70;;;21.02;;
75926;SDS011;64605;48.296;16.416;2023-05-14T11:15:08;26.58;;;20.65;;
75926;SDS011;64605;48.296;16.416;2023-05-14T11:17:35;20.85;;;17.45;;
75926;SDS011;64605;48.296;16.416;2023-05-14T11:20:02;22.05;;;19.38;;
75926;SDS011;64605;48.296;16.416;2023-05-14T11:22:29;25.38;;;19.98;;
75926;SDS011;64605;48.296;16.416;2023-05-14T11:24:55;21.55;;;18.50;;
75926;SDS011;64605;48.296;16.416;2023-05-14T11:27:21;24.60;;;20.98;;
75926;SDS011;64605;48.296;16.416;2023-05-14T11:29:48;37.40;;;27.23;;
75926;SDS011;64605;48.296;16.416;2023-05-14T11:32:15;24.35;;;19.33;;
75926;SDS011;64605;48.296;16.416;2023-05-14T11:34:42;27.55;;;22.20;;
75926;SDS011;64605;48.296;16.416;2023-05-14T11:37:11;23.15;;;19.73;;
75926;SDS011;64605;48.296;16.416;2023-05-14T11:39:44;21.65;;;19.40;;
75926;SDS011;64605;48.296;16.416;2023-05-14T11:42:11;22.60;;;19.42;;
75926;SDS011;64605;48.296;16.416;2023-05-14T11:44:38;19.48;;;17.40;;
75926;SDS011;64605;48.296;16.416;2023-05-14T11:47:05;23.80;;;18.27;;
75926;SDS011;64605;48.296;16.416;2023-05-14T11:49:31;25.20;;;20.38;;
75926;SDS011;64605;48.296;16.416;2023-05-14T11:52:00;25.35;;;20.63;;
75926;SDS011;64605;48.296;16.416;2023-05-14T11:54:27;20.13;;;18.00;;
75926;SDS011;64605;48.296;16.416;2023-05-14T11:56:57;22.27;;;18.88;;
75926;SDS011;64605;48.296;16.416;2023-05-14T11:59:26;21.58;;;18.08;;
75926;SDS011;64605;48.296;16.416;2023-05-14T12:01:55;24.13;;;20.50;;
75926;SDS011;64605;48.296;16.416;2023-05-14T12:04:21;16.83;;;15.02;;
75926;SDS011;64605;48.296;16.416;2023-05-14T12:06:48;20.75;;;16.52;;
75926;SDS011;64605;48.296;16.416;2023-05-14T12:09:20;22.70;;;19.50;;
75926;SDS011;64605;48.296;16.416;2023-05-14T12:11:48;22.10;;;17.88;;
75926;SDS011;64605;48.296;16.416;2023-05-14T12:14:15;17.15;;;15.35;;
75926;SDS011;64605;48.296;16.416;2023-05-14T12:16:46;15.40;;;13.90;;
75926;SDS011;64605;48.296;16.416;2023-05-14T12:19:13;16.73;;;14.88;;
75926;SDS011;64605;48.296;16.416;2023-05-14T12:21:41;16.15;;;14.43;;
75926;SDS011;64605;48.296;16.416;2023-05-14T12:24:12;14.65;;;13.18;;
75926;SDS011;64605;48.296;16.416;2023-05-14T12:26:42;13.43;;;12.13;;
75926;SDS011;64605;48.296;16.416;2023-05-14T12:29:11;18.27;;;14.60;;
75926;SDS011;64605;48.296;16.416;2023-05-14T12:31:37;16.67;;;13.75;;
75926;SDS011;64605;48.296;16.416;2023-05-14T12:34:08;18.27;;;16.38;;
75926;SDS011;64605;48.296;16.416;2023-05-14T12:36:34;16.67;;;15.02;;
75926;SDS011;64605;48.296;16.416;2023-05-14T12:39:01;15.35;;;13.75;;
75926;SDS011;64605;48.296;16.416;2023-05-14T12:41:28;14.70;;;13.20;;
75926;SDS011;64605;48.296;16.416;2023-05-14T12:43:55;18.92;;;16.77;;
75926;SDS011;64605;48.296;16.416;2023-05-14T12:46:21;17.80;;;16.00;;
75926;SDS011;64605;48.296;16.416;2023-05-14T12:48:47;16.92;;;15.05;;
75926;SDS011;64605;48.296;16.416;2023-05-14T12:51:13;14.27;;;12.85;;
75926;SDS011;64605;48.296;16.416;2023-05-14T12:53:39;22.00;;;13.60;;
75926;SDS011;64605;48.296;16.416;2023-05-14T12:56:05;16.08;;;14.48;;
75926;SDS011;64605;48.296;16.416;2023-05-14T12:58:31;12.80;;;11.43;;
75926;SDS011;64605;48.296;16.416;2023-05-14T13:00:56;13.75;;;12.38;;
75926;SDS011;64605;48.296;16.416;2023-05-14T13:03:22;15.38;;;13.73;;
75926;SDS011;64605;48.296;16.416;2023-05-14T13:05:49;17.52;;;15.48;;
75926;SDS011;64605;48.296;16.416;2023-05-14T13:08:16;18.77;;;15.10;;
75926;SDS011;64605;48.296;16.416;2023-05-14T13:10:44;18.80;;;16.77;;
75926;SDS011;64605;48.296;16.416;2023-05-14T13:13:10;16.30;;;14.73;;
75926;SDS011;64605;48.296;16.416;2023-05-14T13:15:36;13.82;;;12.40;;
75926;SDS011;64605;48.296;16.416;2023-05-14T13:18:02;12.50;;;11.30;;
75926;SDS011;64605;48.296;16.416;2023-05-14T13:20:28;12.35;;;11.23;;
75926;SDS011;64605;48.296;16.416;2023-05-14T13:22:55;14.07;;;11.13;;
75926;SDS011;64605;48.296;16.416;2023-05-14T13:25:21;15.30;;;13.70;;
75926;SDS011;64605;48.296;16.416;2023-05-14T13:27:47;16.20;;;14.52;;
75926;SDS011;64605;48.296;16.416;2023-05-14T13:30:16;14.82;;;13.15;;
75926;SDS011;64605;48.296;16.416;2023-05-14T13:32:42;13.95;;;12.52;;
75926;SDS011;64605;48.296;16.416;2023-05-14T13:35:08;20.08;;;16.17;;
75926;SDS011;64605;48.296;16.416;2023-05-14T13:37:34;17.63;;;15.50;;
75926;SDS011;64605;48.296;16.416;2023-05-14T13:40:00;21.83;;;19.52;;
75926;SDS011;64605;48.296;16.416;2023-05-14T13:42:25;15.05;;;13.38;;
75926;SDS011;64605;48.296;16.416;2023-05-14T13:44:51;15.43;;;12.70;;
75926;SDS011;64605;48.296;16.416;2023-05-14T13:47:17;17.88;;;16.08;;
75926;SDS011;64605;48.296;16.416;2023-05-14T13:49:42;16.58;;;14.77;;
75926;SDS011;64605;48.296;16.416;2023-05-14T13:52:08;17.73;;;14.93;;
75926;SDS011;64605;48.296;16.416;2023-05-14T13:54:34;19.08;;;16.38;;
75926;SDS011;64605;48.296;16.416;2023-05-14T13:56:59;21.40;;;16.77;;
75926;SDS011;64605;48.296;16.416;2023-05-14T13:59:25;18.75;;;15.65;;
75926;SDS011;64605;48.296;16.416;2023-05-14T14:01:51;14.40;;;12.43;;
75926;SDS011;64605;48.296;16.416;2023-05-14T14:04:17;14.35;;;12.90;;
75926;SDS011;64605;48.296;16.416;2023-05-14T14:06:43;15.60;;;12.00;;
75926;SDS011;64605;48.296;16.416;2023-05-14T14:09:09;16.75;;;14.40;;
75926;SDS011;64605;48.296;16.416;2023-05-14T14:11:37;18.13;;;13.32;;
75926;SDS011;64605;48.296;16.416;2023-05-14T14:14:03;13.10;;;11.70;;
75926;SDS011;64605;48.296;16.416;2023-05-14T14:16:28;13.85;;;11.73;;